KFWA/FWA METAR and TAF weather

Enter ICAO airport designator
Station Type Date Time Source
KFWA METAR 2022/06/28 15:54 UTC NOAA

KFWA 281554Z VRB04KT 10SM FEW280 22/06 A3028 RMK AO2 SLP252 T02220061


Station Type Date Time Source
KFWA Decoded METAR 2022/06/28 15:54 UTC NOAA

FORT WAYNE INTERNATIONAL, IN, United States (KFWA) 41-00N 85-12W 248M
Jun 28, 2022 - 11:54 AM EDT / 2022.06.28 1554 UTC
Wind: Variable at 5 MPH (4 KT):0
Visibility: 10 mile(s):0
Sky conditions: mostly clear
Temperature: 72.0 F (22.2 C)
Dew Point: 43.0 F (6.1 C)
Relative Humidity: 35%
Pressure (altimeter): 30.28 in. Hg (1025 hPa)
ob: KFWA 281554Z VRB04KT 10SM FEW280 22/06 A3028 RMK AO2 SLP252 T02220061
cycle: 16

Station Type Date Time Source
KFWA TAF 2022/06/28 12:22 UTC NOAA

TAF KFWA 281120Z 2812/2912 VRB03KT P6SM FEW250
FM281700 22005KT P6SM SCT250

Example: see airport list